Riviera Beach, Florida
Current Conditions -  °F | °C
As of 2:53 PM on Monday 22 Dec 2014 (Local Time) from KPBI Reporting Station
Broken Clouds Broken Clouds  
Wind Chill: 82°   Ceiling: 25000
Heat Index: 84°   Visibility: 10mi
Dew Point: 67°   Wind: 12mph
Humidity: 60%   Direction: 160°SSE
Pressure: 29.93"   Gusts: NA
Location:  26.78°N, 80.06°W
Report Text: KPBI 221953Z 16010KT 10SM FEW028 SCT035 BKN250 28/19 A2993 RMK AO2 SLP135 T02780194
Loading
Personal Weather Stations






























Interactive Weather Map New forecast layout! Learn more

10-Day Weather Forecast

Advertisements
Track Severe Weather on mobile